Time;durP1;ratioP1;P1;durP2;ratioP2;P2;SDS_P1;SDS_P2;PMS_P1;PMS_P2;Temp;Humidity;BMP_temperature;BMP_pressure;BME280_temperature;BME280_humidity;BME280_pressure;Samples;Min_cycle;Max_cycle;Signal;HPM_P1;HPM_P2
2023/04/04 00:01:34;;;;;;;70.82;65.50;;;11.70;99.90;;;;;;5205814;28;20029;-67
2023/04/04 00:04:05;;;;;;;74.97;69.10;;;11.70;99.90;;;;;;5209329;28;20466;-66
2023/04/04 00:06:36;;;;;;;73.07;67.68;;;11.70;99.90;;;;;;5201514;28;20026;-67
2023/04/04 00:09:07;;;;;;;72.53;67.60;;;11.80;99.90;;;;;;5188636;28;20496;-67
2023/04/04 00:11:37;;;;;;;70.75;65.70;;;11.60;99.90;;;;;;5188778;28;20018;-67
2023/04/04 00:14:08;;;;;;;71.82;66.75;;;11.60;99.90;;;;;;5188652;28;20112;-67
2023/04/04 00:16:39;;;;;;;76.78;71.38;;;11.70;99.90;;;;;;5188642;28;20095;-67
2023/04/04 00:19:16;;;;;;;75.82;70.55;;;11.70;99.90;;;;;;5188241;28;20628;-68
2023/04/04 00:21:49;;;;;;;76.38;70.82;;;11.60;99.90;;;;;;5188394;28;20026;-70
2023/04/04 00:24:19;;;;;;;75.50;69.93;;;11.60;99.90;;;;;;5187333;28;20454;-67
2023/04/04 00:26:50;;;;;;;76.05;70.40;;;11.60;99.90;;;;;;5188362;28;20097;-67
2023/04/04 00:29:21;;;;;;;72.68;67.57;;;11.70;99.90;;;;;;5188541;28;20097;-66
2023/04/04 00:31:52;;;;;;;74.50;69.15;;;11.60;99.90;;;;;;5188532;28;20029;-66
2023/04/04 00:34:23;;;;;;;67.68;62.25;;;11.60;99.90;;;;;;5188793;28;20018;-66
2023/04/04 00:36:53;;;;;;;68.13;63.03;;;11.60;99.90;;;;;;5188592;28;20033;-68
2023/04/04 00:39:25;;;;;;;73.03;67.82;;;11.70;99.90;;;;;;5188252;28;20034;-67
2023/04/04 00:41:56;;;;;;;77.18;71.28;;;11.70;99.90;;;;;;5188276;28;20026;-70
2023/04/04 00:44:29;;;;;;;82.03;76.03;;;11.70;99.90;;;;;;5188334;28;20446;-67
2023/04/04 00:47:00;;;;;;;82.20;76.30;;;11.70;99.90;;;;;;5188254;28;20028;-67
2023/04/04 00:49:30;;;;;;;79.13;73.50;;;11.80;99.90;;;;;;5188104;28;20390;-66
2023/04/04 00:52:01;;;;;;;74.00;67.82;;;11.70;99.90;;;;;;5188248;28;20572;-67
2023/04/04 00:54:33;;;;;;;79.72;74.03;;;11.60;99.90;;;;;;5188031;28;20048;-69
2023/04/04 00:57:06;;;;;;;74.90;69.35;;;11.60;99.90;;;;;;5187932;28;20022;-67
2023/04/04 00:59:37;;;;;;;75.97;70.28;;;11.60;99.90;;;;;;5187739;28;20465;-66
2023/04/04 01:02:08;;;;;;;78.15;72.25;;;11.60;99.90;;;;;;5187762;28;20101;-67
2023/04/04 01:04:42;;;;;;;78.75;72.75;;;11.70;99.90;;;;;;5187802;28;20109;-66
2023/04/04 01:07:13;;;;;;;76.68;70.40;;;11.60;99.90;;;;;;5187665;28;20386;-66
2023/04/04 01:09:44;;;;;;;76.65;71.00;;;11.60;99.90;;;;;;5187584;28;20032;-66
2023/04/04 01:12:15;;;;;;;77.18;71.53;;;11.50;99.90;;;;;;5187174;28;20049;-67
2023/04/04 01:14:46;;;;;;;80.78;74.88;;;11.70;99.90;;;;;;5187544;28;20405;-68
2023/04/04 01:17:18;;;;;;;76.32;70.32;;;11.70;99.90;;;;;;5187629;28;20095;-66
2023/04/04 01:20:01;;;;;;;75.38;69.68;;;11.50;99.90;;;;;;5187211;28;20081;-67
2023/04/04 01:22:33;;;;;;;78.10;72.05;;;11.50;99.90;;;;;;5187350;28;20061;-67
2023/04/04 01:25:05;;;;;;;78.55;72.63;;;11.50;99.90;;;;;;5187514;28;20385;-67
2023/04/04 01:27:37;;;;;;;75.68;69.90;;;11.50;99.90;;;;;;5187339;28;20030;-68
2023/04/04 01:30:09;;;;;;;76.20;69.82;;;11.60;99.90;;;;;;5187253;28;20739;-67
2023/04/04 01:33:05;;;;;;;76.63;70.30;;;11.60;99.90;;;;;;5187264;28;20022;-66
2023/04/04 01:36:09;;;;;;;70.47;64.55;;;11.50;99.90;;;;;;5187174;28;20056;-67
2023/04/04 01:38:47;;;;;;;71.55;65.88;;;11.50;99.90;;;;;;5187005;28;20109;-66
2023/04/04 01:41:20;;;;;;;70.03;64.18;;;11.50;99.90;;;;;;5187421;28;20049;-67
2023/04/04 01:43:51;;;;;;;70.93;64.90;;;11.50;99.90;;;;;;5187048;28;20029;-68
2023/04/04 01:46:22;;;;;;;75.35;69.40;;;11.50;99.90;;;;;;5187092;28;20042;-67
2023/04/04 01:48:53;;;;;;;74.57;68.78;;;11.60;99.90;;;;;;5186910;28;20077;-66
2023/04/04 01:51:24;;;;;;;70.18;64.75;;;11.40;99.90;;;;;;5187109;28;20524;-67
2023/04/04 01:53:55;;;;;;;73.18;67.47;;;11.50;99.90;;;;;;5186963;28;20089;-67
2023/04/04 01:56:26;;;;;;;68.47;63.28;;;11.40;99.90;;;;;;5186851;28;20041;-66
2023/04/04 01:58:57;;;;;;;67.63;62.45;;;11.50;99.90;;;;;;5186782;28;20096;-67
2023/04/04 02:01:27;;;;;;;67.80;62.83;;;11.50;99.90;;;;;;5186779;28;20723;-67
2023/04/04 02:03:58;;;;;;;66.18;60.78;;;11.40;99.90;;;;;;5186787;28;20022;-67
2023/04/04 02:06:29;;;;;;;68.72;63.20;;;11.50;99.90;;;;;;5186612;28;20564;-67
2023/04/04 02:09:00;;;;;;;70.35;64.35;;;11.50;99.90;;;;;;5186605;28;20064;-67
2023/04/04 02:11:32;;;;;;;68.60;62.90;;;11.50;99.90;;;;;;5186608;28;20022;-66
2023/04/04 02:14:02;;;;;;;69.05;63.72;;;11.60;99.90;;;;;;5186500;28;20044;-66
2023/04/04 02:16:33;;;;;;;66.10;60.47;;;11.40;99.90;;;;;;5186574;28;20018;-66
2023/04/04 02:19:04;;;;;;;66.40;61.30;;;11.50;99.90;;;;;;5186042;28;20393;-67
2023/04/04 02:21:35;;;;;;;64.22;59.22;;;11.60;99.90;;;;;;5186349;28;20060;-66
2023/04/04 02:24:06;;;;;;;63.13;58.05;;;11.50;99.90;;;;;;5185666;28;20022;-66
2023/04/04 02:26:37;;;;;;;69.85;64.40;;;11.60;99.90;;;;;;5186276;28;20057;-67
2023/04/04 02:29:08;;;;;;;65.15;59.50;;;11.50;99.90;;;;;;5186227;28;20239;-67
2023/04/04 02:31:39;;;;;;;63.47;58.33;;;11.50;99.90;;;;;;5186113;28;20104;-67
2023/04/04 02:34:10;;;;;;;64.22;59.30;;;11.30;99.90;;;;;;5186144;28;20118;-67
2023/04/04 02:36:41;;;;;;;69.00;63.28;;;11.50;99.90;;;;;;5184800;28;20052;-66
2023/04/04 02:39:12;;;;;;;67.47;62.55;;;11.50;99.90;;;;;;5185821;28;20041;-68
2023/04/04 02:41:43;;;;;;;71.32;64.88;;;11.50;99.90;;;;;;5185979;28;20028;-67
2023/04/04 02:44:14;;;;;;;69.93;64.93;;;11.60;99.90;;;;;;5185817;28;20102;-67
2023/04/04 02:46:44;;;;;;;63.78;58.60;;;11.50;99.90;;;;;;5185870;28;20054;-67
2023/04/04 02:49:15;;;;;;;65.95;60.63;;;11.50;99.90;;;;;;5185755;28;20030;-66
2023/04/04 02:51:46;;;;;;;67.35;61.95;;;11.60;99.90;;;;;;5185842;28;20025;-66
2023/04/04 02:54:17;;;;;;;68.40;63.03;;;11.60;99.90;;;;;;5185863;28;20470;-67
2023/04/04 02:56:48;;;;;;;63.28;58.42;;;11.50;99.90;;;;;;5184430;28;20034;-66
2023/04/04 02:59:18;;;;;;;65.38;60.17;;;11.50;99.90;;;;;;5185759;28;20038;-67
2023/04/04 03:01:49;;;;;;;66.78;61.53;;;11.50;99.90;;;;;;5185559;28;20025;-67
2023/04/04 03:04:20;;;;;;;63.10;58.38;;;11.60;99.90;;;;;;5185671;28;20465;-66
2023/04/04 03:06:51;;;;;;;66.97;61.60;;;11.50;99.90;;;;;;5185797;28;20462;-67
2023/04/04 03:09:22;;;;;;;70.90;65.78;;;11.60;99.90;;;;;;5185621;28;20409;-69
2023/04/04 03:11:52;;;;;;;66.55;61.28;;;11.60;99.90;;;;;;5185755;28;20018;-67
2023/04/04 03:14:25;;;;;;;75.68;70.30;;;11.80;99.90;;;;;;5185654;28;20389;-67
2023/04/04 03:16:56;;;;;;;74.95;69.82;;;11.60;99.90;;;;;;5185565;28;20104;-67
2023/04/04 03:19:27;;;;;;;73.82;69.07;;;11.70;99.90;;;;;;5185134;28;20136;-67
2023/04/04 03:21:58;;;;;;;69.38;64.53;;;11.70;99.90;;;;;;5195427;28;20105;-67
2023/04/04 03:24:28;;;;;;;74.10;69.10;;;11.60;99.90;;;;;;5205907;28;20030;-67
2023/04/04 03:27:02;;;;;;;68.70;63.88;;;11.60;99.90;;;;;;5190640;28;20026;-67
2023/04/04 03:29:33;;;;;;;67.05;62.22;;;11.60;99.90;;;;;;5185301;28;20113;-66
2023/04/04 03:32:04;;;;;;;64.18;59.50;;;11.60;99.90;;;;;;5185521;28;20104;-67
2023/04/04 03:34:35;;;;;;;67.07;62.40;;;11.80;99.90;;;;;;5185446;28;20073;-67
2023/04/04 03:37:06;;;;;;;67.20;62.67;;;11.60;99.90;;;;;;5189636;28;20425;-66
2023/04/04 03:39:37;;;;;;;70.20;65.53;;;11.50;99.90;;;;;;5189378;28;20113;-67
2023/04/04 03:42:08;;;;;;;65.75;61.13;;;11.60;99.90;;;;;;5189555;28;20113;-66
2023/04/04 03:44:40;;;;;;;67.78;63.20;;;11.70;99.90;;;;;;5189414;28;20030;-67
2023/04/04 03:47:10;;;;;;;68.15;63.38;;;11.70;99.90;;;;;;5189208;28;20554;-66
2023/04/04 03:49:41;;;;;;;66.38;61.85;;;11.60;99.90;;;;;;5187733;28;20126;-69
2023/04/04 03:52:12;;;;;;;65.13;60.90;;;11.40;99.90;;;;;;5189212;28;20025;-66
2023/04/04 03:54:43;;;;;;;64.18;59.78;;;11.40;99.90;;;;;;5189257;28;20022;-66
2023/04/04 03:57:14;;;;;;;66.88;62.15;;;11.50;99.90;;;;;;5187918;28;20482;-67
2023/04/04 03:59:45;;;;;;;66.03;61.17;;;11.50;99.90;;;;;;5189004;28;20033;-66
2023/04/04 04:02:16;;;;;;;62.53;58.15;;;11.60;99.90;;;;;;5188965;28;20018;-69
2023/04/04 04:04:46;;;;;;;64.03;59.63;;;11.60;99.90;;;;;;5188935;28;20029;-66
2023/04/04 04:07:17;;;;;;;68.93;64.13;;;11.70;99.90;;;;;;5188864;28;20025;-67
2023/04/04 04:09:48;;;;;;;67.60;63.15;;;11.70;99.90;;;;;;5188844;28;20505;-68
2023/04/04 04:12:19;;;;;;;68.18;63.40;;;11.50;99.90;;;;;;5189168;28;20428;-67
2023/04/04 04:14:50;;;;;;;71.80;66.80;;;11.60;99.90;;;;;;5197854;28;20029;-67
2023/04/04 04:17:20;;;;;;;67.53;62.80;;;11.70;99.90;;;;;;5209468;28;20045;-67
2023/04/04 04:19:51;;;;;;;70.00;64.95;;;11.70;99.90;;;;;;5208920;28;20075;-67
2023/04/04 04:22:22;;;;;;;72.75;67.45;;;11.80;99.90;;;;;;5209190;28;20025;-67
2023/04/04 04:24:53;;;;;;;69.60;64.80;;;11.70;99.90;;;;;;5209211;28;20040;-67
2023/04/04 04:27:23;;;;;;;65.25;60.70;;;11.60;99.90;;;;;;5209100;28;20018;-67
2023/04/04 04:29:55;;;;;;;75.35;69.53;;;11.50;99.90;;;;;;5208958;28;20087;-67
2023/04/04 04:32:26;;;;;;;67.90;63.05;;;11.60;99.90;;;;;;5208919;28;20022;-66
2023/04/04 04:34:56;;;;;;;67.05;62.17;;;11.70;99.90;;;;;;5208836;28;20026;-66
2023/04/04 04:37:27;;;;;;;62.92;58.30;;;11.60;99.90;;;;;;5208896;28;20018;-66
2023/04/04 04:40:00;;;;;;;69.47;64.32;;;11.60;99.90;;;;;;5208692;28;20203;-67
2023/04/04 04:42:31;;;;;;;68.57;63.53;;;11.70;99.90;;;;;;5208718;28;20026;-67
2023/04/04 04:45:02;;;;;;;69.78;64.55;;;11.40;99.90;;;;;;5208676;28;20031;-67
2023/04/04 04:47:32;;;;;;;66.13;60.63;;;11.80;99.90;;;;;;5207900;28;20513;-67
2023/04/04 04:50:04;;;;;;;67.78;62.78;;;11.60;99.90;;;;;;5208620;28;20174;-66
2023/04/04 04:52:38;;;;;;;68.85;63.70;;;11.70;99.90;;;;;;5208623;28;20036;-67
2023/04/04 04:55:09;;;;;;;69.68;64.45;;;11.60;99.90;;;;;;5208556;28;20100;-67
2023/04/04 04:57:40;;;;;;;65.18;60.28;;;11.60;99.90;;;;;;5208474;28;20091;-67
2023/04/04 05:00:11;;;;;;;72.93;67.13;;;11.60;99.90;;;;;;5208316;28;20030;-67
2023/04/04 05:02:42;;;;;;;67.85;62.85;;;11.80;99.90;;;;;;5208316;28;20037;-67
2023/04/04 05:05:13;;;;;;;76.35;71.03;;;11.80;99.90;;;;;;5208336;28;20354;-67
2023/04/04 05:07:45;;;;;;;75.28;69.88;;;11.90;99.90;;;;;;5208089;28;20416;-67
2023/04/04 05:10:16;;;;;;;87.60;81.88;;;11.80;99.90;;;;;;5208159;28;20082;-66
2023/04/04 05:12:47;;;;;;;78.97;73.75;;;11.90;99.90;;;;;;5208185;28;20487;-66
2023/04/04 05:15:18;;;;;;;71.68;66.65;;;11.70;99.90;;;;;;5208116;28;20021;-66
2023/04/04 05:17:48;;;;;;;73.68;68.20;;;11.70;99.90;;;;;;5207790;28;20053;-67
2023/04/04 05:20:19;;;;;;;70.72;65.32;;;11.80;99.90;;;;;;5207942;28;20041;-66
2023/04/04 05:22:50;;;;;;;71.65;66.72;;;11.90;99.90;;;;;;5208082;28;20114;-67
2023/04/04 05:25:21;;;;;;;69.53;64.80;;;11.70;99.90;;;;;;5208069;28;20017;-66
2023/04/04 05:27:52;;;;;;;64.85;59.95;;;11.70;99.90;;;;;;5207986;28;20030;-66
2023/04/04 05:30:22;;;;;;;67.10;62.17;;;11.80;99.90;;;;;;5208033;28;20104;-66
2023/04/04 05:32:54;;;;;;;70.13;65.10;;;11.90;99.90;;;;;;5207878;28;20578;-68
2023/04/04 05:35:25;;;;;;;73.13;67.82;;;11.90;99.90;;;;;;5207819;28;20033;-67
2023/04/04 05:37:55;;;;;;;73.57;68.38;;;11.90;99.90;;;;;;5207741;28;20022;-67
2023/04/04 05:40:26;;;;;;;85.72;80.00;;;12.00;99.90;;;;;;5207622;28;20512;-67
2023/04/04 05:42:59;;;;;;;83.95;78.38;;;12.20;99.90;;;;;;5207538;28;20021;-66
2023/04/04 05:45:30;;;;;;;87.65;81.97;;;12.10;99.90;;;;;;5207532;28;20463;-67
2023/04/04 05:48:01;;;;;;;86.50;80.60;;;12.20;99.90;;;;;;5206120;28;20548;-67
2023/04/04 05:50:32;;;;;;;93.22;86.78;;;12.30;99.90;;;;;;5207503;28;20092;-66
2023/04/04 05:53:03;;;;;;;90.60;84.28;;;12.30;99.90;;;;;;5207342;28;20037;-67
2023/04/04 05:55:34;;;;;;;85.28;79.65;;;12.20;99.90;;;;;;5207359;28;20028;-66
2023/04/04 05:58:05;;;;;;;93.28;87.13;;;12.20;99.90;;;;;;5206793;28;20473;-67
2023/04/04 06:00:36;;;;;;;85.25;79.30;;;12.30;99.90;;;;;;5206598;28;20037;-67
2023/04/04 06:03:06;;;;;;;123.38;115.63;;;12.40;99.90;;;;;;5205845;28;20082;-67
2023/04/04 06:05:37;;;;;;;93.53;87.38;;;12.50;99.90;;;;;;5205822;28;20610;-67
2023/04/04 06:08:08;;;;;;;143.57;134.88;;;12.40;99.90;;;;;;5206878;28;20045;-67
2023/04/04 06:10:39;;;;;;;92.35;86.70;;;12.60;99.90;;;;;;5207059;28;20029;-70
2023/04/04 06:13:10;;;;;;;96.22;89.82;;;12.70;99.90;;;;;;5206775;28;20029;-69
2023/04/04 06:15:41;;;;;;;95.72;89.72;;;12.50;99.90;;;;;;5206865;28;20018;-68
2023/04/04 06:18:11;;;;;;;94.38;88.20;;;12.70;99.90;;;;;;5206516;28;20516;-66
2023/04/04 06:20:42;;;;;;;95.97;89.85;;;12.60;99.90;;;;;;5206611;28;20423;-67
2023/04/04 06:23:13;;;;;;;92.13;86.47;;;12.80;99.90;;;;;;5206558;28;20025;-69
2023/04/04 06:25:44;;;;;;;87.35;81.68;;;12.70;99.90;;;;;;5206729;28;20029;-70
2023/04/04 06:28:16;;;;;;;87.63;82.22;;;12.80;99.90;;;;;;5205228;28;20017;-66
2023/04/04 06:30:48;;;;;;;92.10;86.28;;;12.90;99.90;;;;;;5205249;28;20067;-67
2023/04/04 06:33:19;;;;;;;82.43;77.13;;;12.70;99.90;;;;;;5206500;28;20550;-67
2023/04/04 06:35:49;;;;;;;87.30;81.68;;;13.00;99.90;;;;;;5206390;28;20030;-67
2023/04/04 06:38:20;;;;;;;78.32;73.35;;;13.30;99.90;;;;;;5205097;28;20540;-70
2023/04/04 06:40:52;;;;;;;93.68;87.40;;;13.50;99.90;;;;;;5206324;28;20030;-66
2023/04/04 06:43:24;;;;;;;87.60;81.60;;;13.00;99.90;;;;;;5206397;28;20025;-67
2023/04/04 06:45:55;;;;;;;87.03;81.25;;;13.10;99.90;;;;;;5206341;28;20369;-66
2023/04/04 06:48:26;;;;;;;86.05;80.43;;;13.30;99.90;;;;;;5206016;28;20033;-67
2023/04/04 06:50:57;;;;;;;98.15;91.55;;;13.30;99.90;;;;;;5206164;28;20065;-70
2023/04/04 06:53:28;;;;;;;82.65;76.75;;;13.50;99.90;;;;;;5206228;28;20025;-67
2023/04/04 06:56:00;;;;;;;77.90;72.57;;;13.50;99.90;;;;;;5206172;28;20036;-67
2023/04/04 06:58:31;;;;;;;77.35;71.75;;;13.60;99.90;;;;;;5206096;28;20365;-67
2023/04/04 07:01:02;;;;;;;76.90;71.95;;;13.60;99.90;;;;;;5206120;28;20508;-68
2023/04/04 07:03:32;;;;;;;72.80;68.05;;;13.60;99.90;;;;;;5205934;28;20057;-70
2023/04/04 07:06:04;;;;;;;71.40;66.60;;;13.60;99.90;;;;;;5204720;28;20040;-70
2023/04/04 07:08:34;;;;;;;79.85;74.50;;;13.50;99.90;;;;;;5204631;28;20095;-72
2023/04/04 07:11:06;;;;;;;93.50;87.72;;;13.70;99.90;;;;;;5205650;28;20022;-70
2023/04/04 07:13:37;;;;;;;103.53;96.75;;;13.70;99.90;;;;;;5206144;28;20027;-68
2023/04/04 07:16:09;;;;;;;113.55;106.60;;;13.80;99.90;;;;;;5194639;28;20133;-67
2023/04/04 07:18:40;;;;;;;115.68;107.97;;;13.50;99.90;;;;;;5204858;28;20049;-70
2023/04/04 07:21:12;;;;;;;111.47;104.55;;;13.70;99.90;;;;;;5205568;28;20076;-69
2023/04/04 07:23:43;;;;;;;109.45;102.70;;;13.70;99.90;;;;;;5205653;28;20021;-65
2023/04/04 07:26:14;;;;;;;107.85;101.28;;;13.70;99.90;;;;;;5205654;28;20029;-66
2023/04/04 07:28:45;;;;;;;113.95;107.25;;;13.70;99.90;;;;;;5205647;28;20044;-65
2023/04/04 07:31:16;;;;;;;117.78;110.18;;;13.80;99.90;;;;;;5205673;28;20033;-65
2023/04/04 07:33:47;;;;;;;111.80;104.72;;;13.80;99.90;;;;;;5205666;28;20484;-65
2023/04/04 07:36:17;;;;;;;108.93;101.95;;;13.90;99.90;;;;;;5205661;28;20032;-65
2023/04/04 07:38:48;;;;;;;113.00;105.82;;;13.70;99.90;;;;;;5205507;28;20031;-67
2023/04/04 07:41:20;;;;;;;109.32;102.20;;;13.70;99.90;;;;;;5205541;28;20088;-65
2023/04/04 07:43:51;;;;;;;105.30;99.00;;;14.00;99.90;;;;;;5205513;28;20022;-66
2023/04/04 07:46:21;;;;;;;107.88;100.97;;;14.10;99.90;;;;;;5205557;28;20033;-70
2023/04/04 07:48:52;;;;;;;101.60;95.05;;;14.00;99.90;;;;;;5205307;28;20033;-66
2023/04/04 07:51:28;;;;;;;100.80;94.32;;;14.10;99.90;;;;;;5205556;28;20037;-65
2023/04/04 07:54:00;;;;;;;104.72;97.55;;;14.10;99.90;;;;;;5205457;28;20083;-66
2023/04/04 07:56:31;;;;;;;112.15;104.78;;;14.00;99.90;;;;;;5205621;28;20469;-65
2023/04/04 07:59:02;;;;;;;101.68;95.22;;;13.80;99.90;;;;;;5204133;28;20092;-66
2023/04/04 08:01:32;;;;;;;104.68;97.55;;;13.90;99.90;;;;;;5205727;28;20018;-65
2023/04/04 08:04:04;;;;;;;113.13;105.22;;;13.80;99.90;;;;;;5205602;28;20530;-70
2023/04/04 08:06:35;;;;;;;119.82;110.97;;;13.90;99.90;;;;;;5205360;28;20476;-66
2023/04/04 08:09:06;;;;;;;120.65;111.72;;;14.00;99.90;;;;;;5205315;28;20485;-68
2023/04/04 08:11:37;;;;;;;108.78;101.13;;;14.10;99.90;;;;;;5205507;28;20029;-66
2023/04/04 08:14:10;;;;;;;109.60;101.45;;;14.10;99.90;;;;;;5205429;28;20021;-66
2023/04/04 08:16:41;;;;;;;118.55;109.25;;;14.20;99.90;;;;;;5205455;28;20026;-66
2023/04/04 08:19:12;;;;;;;123.90;113.53;;;14.20;99.90;;;;;;5204961;28;20045;-66
2023/04/04 08:21:44;;;;;;;114.20;104.70;;;14.30;99.90;;;;;;5205416;28;20045;-68
2023/04/04 08:24:15;;;;;;;102.75;95.05;;;14.50;99.90;;;;;;5209233;28;20052;-66
2023/04/04 08:26:46;;;;;;;106.20;98.22;;;14.40;99.90;;;;;;5209126;28;20061;-69
2023/04/04 08:29:16;;;;;;;114.22;105.05;;;14.60;99.90;;;;;;5208901;28;20025;-70
2023/04/04 08:31:47;;;;;;;98.50;91.35;;;14.50;99.90;;;;;;5208921;28;20017;-71
2023/04/04 08:34:19;;;;;;;105.85;98.50;;;14.40;99.90;;;;;;5208860;28;20033;-66
2023/04/04 08:36:50;;;;;;;111.32;103.97;;;14.50;99.90;;;;;;5208868;28;20018;-66
2023/04/04 08:39:21;;;;;;;109.40;102.18;;;14.30;99.90;;;;;;5208565;28;20033;-66
2023/04/04 08:42:00;;;;;;;110.15;103.05;;;14.40;99.90;;;;;;5208778;28;20026;-66
2023/04/04 08:44:36;;;;;;;113.40;106.25;;;14.40;99.90;;;;;;5208782;28;20041;-66
2023/04/04 08:47:09;;;;;;;116.95;109.38;;;14.20;99.90;;;;;;5208679;28;20090;-66
2023/04/04 08:49:43;;;;;;;108.65;101.28;;;14.40;99.90;;;;;;5208452;28;20092;-66
2023/04/04 08:52:18;;;;;;;110.38;102.97;;;14.60;99.90;;;;;;5208595;28;20415;-71
2023/04/04 08:54:50;;;;;;;114.10;105.78;;;14.50;99.90;;;;;;5208433;28;20025;-70
2023/04/04 08:57:21;;;;;;;110.70;102.93;;;14.60;99.90;;;;;;5208476;28;20057;-65
2023/04/04 08:59:53;;;;;;;117.00;108.53;;;14.70;99.90;;;;;;5208448;28;20029;-65
2023/04/04 09:02:56;;;;;;;117.70;109.45;;;14.70;99.90;;;;;;5208381;28;20030;-66
2023/04/04 09:05:27;;;;;;;118.95;110.63;;;14.70;99.90;;;;;;5192804;28;20018;-66
2023/04/04 09:07:59;;;;;;;125.75;116.90;;;14.60;99.90;;;;;;5187663;28;20029;-65
2023/04/04 09:10:30;;;;;;;116.78;108.95;;;14.90;99.90;;;;;;5187792;28;20028;-65
2023/04/04 09:13:03;;;;;;;123.95;116.05;;;14.80;99.90;;;;;;5187903;28;20518;-65
2023/04/04 09:15:37;;;;;;;90.38;83.50;;;14.90;99.90;;;;;;5187674;28;20030;-66
2023/04/04 09:18:08;;;;;;;85.78;80.03;;;14.90;99.90;;;;;;5192367;28;20365;-65
2023/04/04 09:20:41;;;;;;;81.85;76.30;;;15.10;99.90;;;;;;5187607;28;20077;-66
2023/04/04 09:23:19;;;;;;;80.50;75.15;;;15.20;99.90;;;;;;5187913;28;20022;-65
2023/04/04 09:25:51;;;;;;;76.97;71.85;;;15.20;99.90;;;;;;5186436;28;20037;-65
2023/04/04 09:28:23;;;;;;;77.13;71.53;;;15.50;99.90;;;;;;5186110;28;20028;-65
2023/04/04 09:30:53;;;;;;;86.18;78.75;;;15.60;99.90;;;;;;5186086;28;20031;-65
2023/04/04 09:33:25;;;;;;;105.90;95.80;;;15.60;99.90;;;;;;5187112;28;20029;-65
2023/04/04 09:36:02;;;;;;;96.85;87.78;;;15.60;99.90;;;;;;5187207;28;20017;-66
2023/04/04 09:38:37;;;;;;;86.88;79.88;;;15.50;99.90;;;;;;5186816;28;20072;-64
2023/04/04 09:41:09;;;;;;;86.70;79.93;;;15.60;99.90;;;;;;5186786;28;20476;-65
2023/04/04 09:43:43;;;;;;;83.15;76.07;;;15.70;99.90;;;;;;5207392;28;20025;-68
2023/04/04 09:46:18;;;;;;;90.28;82.50;;;15.80;99.90;;;;;;5207539;28;20026;-65
2023/04/04 09:48:50;;;;;;;89.53;82.82;;;15.80;99.90;;;;;;5207327;28;20033;-68
2023/04/04 09:51:21;;;;;;;80.47;75.28;;;15.80;99.90;;;;;;5207631;28;20488;-72
2023/04/04 09:53:51;;;;;;;79.25;73.93;;;15.50;99.90;;;;;;5207335;28;20030;-72
2023/04/04 09:56:22;;;;;;;79.00;73.75;;;15.60;99.90;;;;;;5207239;28;20033;-67
2023/04/04 09:58:53;;;;;;;80.00;74.95;;;15.60;99.90;;;;;;5207114;28;20478;-65
2023/04/04 10:01:25;;;;;;;83.40;77.72;;;15.80;99.90;;;;;;5207207;28;20373;-65
2023/04/04 10:03:57;;;;;;;89.88;84.15;;;15.90;99.90;;;;;;5207088;28;20053;-66
2023/04/04 10:06:29;;;;;;;87.18;81.40;;;15.90;99.90;;;;;;5206823;28;20083;-73
2023/04/04 10:09:00;;;;;;;96.32;90.82;;;15.80;99.90;;;;;;5206692;28;20029;-71
2023/04/04 10:11:33;;;;;;;88.75;83.47;;;15.90;99.90;;;;;;5206958;28;20071;-70
2023/04/04 10:14:03;;;;;;;71.45;67.25;;;16.00;99.90;;;;;;5206375;28;20033;-68
2023/04/04 10:16:38;;;;;;;65.50;61.55;;;16.20;99.90;;;;;;5205667;28;20469;-66
2023/04/04 10:19:09;;;;;;;58.50;54.63;;;16.40;99.90;;;;;;5206575;28;20049;-66
2023/04/04 10:21:41;;;;;;;61.20;57.67;;;16.50;99.90;;;;;;5207055;28;20029;-65
2023/04/04 10:24:13;;;;;;;74.00;68.38;;;16.70;99.90;;;;;;5205901;28;20014;-65
2023/04/04 10:26:43;;;;;;;74.72;69.85;;;16.50;99.90;;;;;;5205593;28;20791;-67
2023/04/04 10:29:14;;;;;;;86.22;80.63;;;16.10;99.90;;;;;;5206791;28;20032;-67
2023/04/04 10:31:48;;;;;;;84.65;79.22;;;16.30;99.90;;;;;;5206697;28;20493;-66
2023/04/04 10:34:42;;;;;;;79.72;74.65;;;16.60;99.90;;;;;;5187902;28;20037;-65
2023/04/04 10:37:19;;;;;;;74.63;69.60;;;17.00;99.90;;;;;;5186122;28;20029;-72
2023/04/04 10:40:14;;;;;;;74.63;69.65;;;17.00;99.90;;;;;;5186183;28;20042;-65
2023/04/04 10:42:46;;;;;;;68.93;64.10;;;16.50;99.90;;;;;;5182751;28;20508;-65
2023/04/04 10:45:17;;;;;;;69.30;64.47;;;16.50;99.90;;;;;;5185406;28;20026;-65
2023/04/04 10:47:50;;;;;;;67.88;63.13;;;16.50;99.90;;;;;;5185784;28;20095;-70
2023/04/04 10:50:21;;;;;;;72.22;67.45;;;16.60;99.90;;;;;;5185818;28;20026;-64
2023/04/04 10:52:52;;;;;;;67.72;63.50;;;16.80;99.90;;;;;;5185736;28;20424;-65
2023/04/04 10:55:23;;;;;;;71.97;67.50;;;16.60;99.90;;;;;;5185600;28;20030;-71
2023/04/04 10:57:55;;;;;;;59.92;55.95;;;16.60;99.90;;;;;;5185803;28;20504;-70
2023/04/04 11:00:26;;;;;;;62.08;58.03;;;16.70;99.90;;;;;;5185602;28;20030;-65
2023/04/04 11:02:59;;;;;;;54.72;50.95;;;17.00;99.90;;;;;;5185806;28;20026;-66
2023/04/04 11:05:46;;;;;;;56.60;52.85;;;17.20;99.90;;;;;;5185553;28;20026;-65
2023/04/04 11:08:24;;;;;;;53.03;49.70;;;17.20;99.90;;;;;;5185491;28;20076;-66
2023/04/04 11:10:56;;;;;;;52.78;49.60;;;17.10;99.90;;;;;;5185637;28;20489;-70
2023/04/04 11:13:34;;;;;;;54.70;51.33;;;17.20;99.90;;;;;;5185539;28;20072;-65
2023/04/04 11:16:14;;;;;;;63.95;59.80;;;16.80;99.90;;;;;;5185594;28;20365;-65
2023/04/04 11:18:45;;;;;;;;;;;16.90;99.90;;;;;;5185657;28;20073;-65
2023/04/04 11:21:25;;;;;;;58.15;54.63;;;16.40;99.90;;;;;;5185541;28;19964;-72
2023/04/04 11:23:59;;;;;;;61.40;57.55;;;16.60;99.90;;;;;;5185669;28;20033;-66
2023/04/04 11:26:30;;;;;;;54.65;50.22;;;17.00;99.90;;;;;;5185452;28;20021;-71
2023/04/04 11:29:13;;;;;;;52.70;48.97;;;17.00;99.90;;;;;;5185546;28;20022;-66
2023/04/04 11:31:44;;;;;;;69.30;63.97;;;17.00;99.90;;;;;;5185719;28;20029;-68
2023/04/04 11:34:29;;;;;;;53.90;50.20;;;17.30;99.90;;;;;;5196168;28;20033;-66
2023/04/04 11:37:16;;;;;;;54.35;50.88;;;17.10;99.90;;;;;;5164958;28;20440;-65
2023/04/04 11:39:49;;;;;;;54.45;50.80;;;17.50;99.90;;;;;;5164980;28;20026;-65
2023/04/04 11:42:20;;;;;;;52.58;49.10;;;17.40;99.90;;;;;;5164750;28;20169;-66
2023/04/04 11:44:51;;;;;;;52.75;49.25;;;17.70;99.90;;;;;;5164968;28;20105;-65
2023/04/04 11:47:23;;;;;;;50.35;47.13;;;17.70;99.90;;;;;;5165385;28;20027;-66
2023/04/04 11:49:55;;;;;;;57.03;53.08;;;17.60;99.90;;;;;;5164757;28;20038;-66
2023/04/04 11:52:33;;;;;;;58.35;54.63;;;17.20;99.90;;;;;;5164843;28;20034;-66
2023/04/04 11:55:18;;;;;;;62.03;58.33;;;16.90;99.90;;;;;;5164970;28;20030;-66
2023/04/04 11:57:50;;;;;;;58.20;54.60;;;16.70;99.90;;;;;;5168516;28;20113;-65
2023/04/04 12:00:33;;;;;;;56.40;52.63;;;16.50;99.90;;;;;;5168782;28;20454;-68
2023/04/04 12:03:07;;;;;;;57.97;54.40;;;16.70;99.90;;;;;;5168741;28;20063;-65
2023/04/04 12:05:42;;;;;;;57.58;53.97;;;16.80;99.90;;;;;;5168792;28;20667;-68
2023/04/04 12:08:14;;;;;;;62.28;58.03;;;16.80;99.90;;;;;;5168591;28;20023;-66
2023/04/04 12:10:45;;;;;;;55.38;52.03;;;16.90;99.90;;;;;;5168612;28;20030;-71
2023/04/04 12:13:16;;;;;;;53.90;50.35;;;16.70;99.90;;;;;;5168562;28;20076;-65
2023/04/04 12:15:47;;;;;;;55.03;51.40;;;16.80;99.90;;;;;;5168434;28;20037;-72
2023/04/04 12:18:22;;;;;;;59.65;55.83;;;16.90;99.90;;;;;;5168420;28;20054;-65
2023/04/04 12:20:53;;;;;;;57.70;54.05;;;16.80;99.90;;;;;;5168588;28;20363;-67
2023/04/04 12:23:23;;;;;;;56.15;52.28;;;16.90;99.90;;;;;;5196933;28;20076;-69
2023/04/04 12:25:56;;;;;;;57.78;54.17;;;17.10;99.90;;;;;;5208898;28;20428;-66
2023/04/04 12:28:27;;;;;;;56.63;52.53;;;17.40;99.90;;;;;;5208886;28;20036;-65
2023/04/04 12:31:04;;;;;;;58.50;53.72;;;17.40;99.90;;;;;;5208852;28;20109;-65
2023/04/04 12:33:35;;;;;;;63.55;59.15;;;16.80;99.90;;;;;;5208927;28;20532;-65
2023/04/04 12:36:06;;;;;;;51.90;48.40;;;16.60;99.90;;;;;;5208986;28;20022;-65
2023/04/04 12:38:59;;;;;;;55.42;51.38;;;16.30;99.90;;;;;;5208478;28;20028;-66
2023/04/04 12:41:32;;;;;;;52.42;48.45;;;16.20;99.90;;;;;;5208862;28;20361;-65
2023/04/04 12:44:04;;;;;;;54.20;50.22;;;16.30;99.90;;;;;;5208819;28;20026;-65
2023/04/04 12:46:38;;;;;;;50.92;47.10;;;16.40;99.90;;;;;;5208799;28;20104;-65
2023/04/04 12:49:10;;;;;;;54.33;50.40;;;16.20;99.90;;;;;;5208498;28;20461;-65